sensor_id;sensor_type;location;lat;lon;timestamp;temperature;humidity
17728;DHT22;8984;49.268;12.302;2023-10-13T00:02:14;17.10;99.90
17728;DHT22;8984;49.268;12.302;2023-10-13T00:04:45;17.10;99.90
17728;DHT22;8984;49.268;12.302;2023-10-13T00:07:12;17.10;99.90
17728;DHT22;8984;49.268;12.302;2023-10-13T00:09:39;17.10;99.90
17728;DHT22;8984;49.268;12.302;2023-10-13T00:12:07;17.10;99.90
17728;DHT22;8984;49.268;12.302;2023-10-13T00:14:38;17.10;99.90
17728;DHT22;8984;49.268;12.302;2023-10-13T00:17:07;17.10;99.90
17728;DHT22;8984;49.268;12.302;2023-10-13T00:19:37;17.10;99.90
17728;DHT22;8984;49.268;12.302;2023-10-13T00:22:12;17.10;99.90
17728;DHT22;8984;49.268;12.302;2023-10-13T00:24:42;17.10;99.90
17728;DHT22;8984;49.268;12.302;2023-10-13T00:27:11;17.10;99.90
17728;DHT22;8984;49.268;12.302;2023-10-13T00:29:54;17.10;99.90
17728;DHT22;8984;49.268;12.302;2023-10-13T00:32:41;17.10;99.90
17728;DHT22;8984;49.268;12.302;2023-10-13T00:35:09;17.10;99.90
17728;DHT22;8984;49.268;12.302;2023-10-13T00:37:40;17.10;99.90
17728;DHT22;8984;49.268;12.302;2023-10-13T00:40:10;17.00;99.90
17728;DHT22;8984;49.268;12.302;2023-10-13T00:43:01;16.90;99.90
17728;DHT22;8984;49.268;12.302;2023-10-13T00:45:52;17.00;99.90
17728;DHT22;8984;49.268;12.302;2023-10-13T00:48:21;17.00;99.90
17728;DHT22;8984;49.268;12.302;2023-10-13T00:50:50;17.00;99.90
17728;DHT22;8984;49.268;12.302;2023-10-13T00:53:17;16.90;99.90
17728;DHT22;8984;49.268;12.302;2023-10-13T00:55:46;17.00;99.90
17728;DHT22;8984;49.268;12.302;2023-10-13T00:58:12;16.90;99.90
17728;DHT22;8984;49.268;12.302;2023-10-13T01:00:40;16.90;99.90
17728;DHT22;8984;49.268;12.302;2023-10-13T01:03:13;16.90;99.90
17728;DHT22;8984;49.268;12.302;2023-10-13T01:05:40;16.80;99.90
17728;DHT22;8984;49.268;12.302;2023-10-13T01:08:07;16.90;99.90
17728;DHT22;8984;49.268;12.302;2023-10-13T01:10:37;16.80;99.90
17728;DHT22;8984;49.268;12.302;2023-10-13T01:13:03;16.80;99.90
17728;DHT22;8984;49.268;12.302;2023-10-13T01:15:30;16.80;99.90
17728;DHT22;8984;49.268;12.302;2023-10-13T01:18:06;16.80;99.90
17728;DHT22;8984;49.268;12.302;2023-10-13T01:20:36;16.80;99.90
17728;DHT22;8984;49.268;12.302;2023-10-13T01:23:11;16.80;99.90
17728;DHT22;8984;49.268;12.302;2023-10-13T01:25:44;16.90;99.90
17728;DHT22;8984;49.268;12.302;2023-10-13T01:28:10;16.90;99.90
17728;DHT22;8984;49.268;12.302;2023-10-13T01:30:41;16.90;99.90
17728;DHT22;8984;49.268;12.302;2023-10-13T01:33:07;16.90;99.90
17728;DHT22;8984;49.268;12.302;2023-10-13T01:35:37;16.90;99.90
17728;DHT22;8984;49.268;12.302;2023-10-13T01:38:08;16.90;99.90
17728;DHT22;8984;49.268;12.302;2023-10-13T01:40:36;16.90;99.90
17728;DHT22;8984;49.268;12.302;2023-10-13T01:43:02;17.00;99.90
17728;DHT22;8984;49.268;12.302;2023-10-13T01:45:30;16.90;99.90
17728;DHT22;8984;49.268;12.302;2023-10-13T01:47:56;16.90;99.90
17728;DHT22;8984;49.268;12.302;2023-10-13T01:50:23;16.90;99.90
17728;DHT22;8984;49.268;12.302;2023-10-13T01:52:55;16.80;99.90
17728;DHT22;8984;49.268;12.302;2023-10-13T01:55:38;16.90;99.90
17728;DHT22;8984;49.268;12.302;2023-10-13T01:58:09;16.80;99.90
17728;DHT22;8984;49.268;12.302;2023-10-13T02:00:40;16.90;99.90
17728;DHT22;8984;49.268;12.302;2023-10-13T02:03:08;16.80;99.90
17728;DHT22;8984;49.268;12.302;2023-10-13T02:05:41;16.80;99.90
17728;DHT22;8984;49.268;12.302;2023-10-13T02:08:13;16.80;99.90
17728;DHT22;8984;49.268;12.302;2023-10-13T02:10:44;16.80;99.90
17728;DHT22;8984;49.268;12.302;2023-10-13T02:13:13;16.70;99.90
17728;DHT22;8984;49.268;12.302;2023-10-13T02:15:44;16.70;99.90
17728;DHT22;8984;49.268;12.302;2023-10-13T02:18:13;16.70;99.90
17728;DHT22;8984;49.268;12.302;2023-10-13T02:20:39;16.60;99.90
17728;DHT22;8984;49.268;12.302;2023-10-13T02:23:11;16.70;99.90
17728;DHT22;8984;49.268;12.302;2023-10-13T02:25:38;16.70;99.90
17728;DHT22;8984;49.268;12.302;2023-10-13T02:28:12;16.70;99.90
17728;DHT22;8984;49.268;12.302;2023-10-13T02:30:47;16.70;99.90
17728;DHT22;8984;49.268;12.302;2023-10-13T02:33:16;16.80;99.90
17728;DHT22;8984;49.268;12.302;2023-10-13T02:35:47;16.80;99.90
17728;DHT22;8984;49.268;12.302;2023-10-13T02:38:20;16.80;99.90
17728;DHT22;8984;49.268;12.302;2023-10-13T02:40:53;16.80;99.90
17728;DHT22;8984;49.268;12.302;2023-10-13T02:43:23;16.80;99.90
17728;DHT22;8984;49.268;12.302;2023-10-13T02:45:52;16.70;99.90
17728;DHT22;8984;49.268;12.302;2023-10-13T02:48:24;16.70;99.90
17728;DHT22;8984;49.268;12.302;2023-10-13T02:50:58;16.70;99.90
17728;DHT22;8984;49.268;12.302;2023-10-13T02:53:31;16.70;99.90
17728;DHT22;8984;49.268;12.302;2023-10-13T02:55:57;16.70;99.90
17728;DHT22;8984;49.268;12.302;2023-10-13T02:58:31;16.70;99.90
17728;DHT22;8984;49.268;12.302;2023-10-13T03:01:05;16.80;99.90
17728;DHT22;8984;49.268;12.302;2023-10-13T03:03:43;16.80;99.90
17728;DHT22;8984;49.268;12.302;2023-10-13T03:06:09;16.80;99.90
17728;DHT22;8984;49.268;12.302;2023-10-13T03:08:37;16.80;99.90
17728;DHT22;8984;49.268;12.302;2023-10-13T03:11:03;16.80;99.90
17728;DHT22;8984;49.268;12.302;2023-10-13T03:13:33;16.70;99.90
17728;DHT22;8984;49.268;12.302;2023-10-13T03:15:59;16.80;99.90
17728;DHT22;8984;49.268;12.302;2023-10-13T03:18:26;16.80;99.90
17728;DHT22;8984;49.268;12.302;2023-10-13T03:20:51;16.70;99.90
17728;DHT22;8984;49.268;12.302;2023-10-13T03:23:22;16.70;99.90
17728;DHT22;8984;49.268;12.302;2023-10-13T03:25:49;16.70;99.90
17728;DHT22;8984;49.268;12.302;2023-10-13T03:28:20;16.70;99.90
17728;DHT22;8984;49.268;12.302;2023-10-13T03:30:52;16.70;99.90
17728;DHT22;8984;49.268;12.302;2023-10-13T03:33:19;16.70;99.90
17728;DHT22;8984;49.268;12.302;2023-10-13T03:35:52;16.70;99.90
17728;DHT22;8984;49.268;12.302;2023-10-13T03:38:20;16.70;99.90
17728;DHT22;8984;49.268;12.302;2023-10-13T03:40:52;16.70;99.90
17728;DHT22;8984;49.268;12.302;2023-10-13T03:43:32;16.70;99.90
17728;DHT22;8984;49.268;12.302;2023-10-13T03:46:11;16.70;99.90
17728;DHT22;8984;49.268;12.302;2023-10-13T03:48:38;16.60;99.90
17728;DHT22;8984;49.268;12.302;2023-10-13T03:51:17;16.70;99.90
17728;DHT22;8984;49.268;12.302;2023-10-13T03:53:44;16.60;99.90
17728;DHT22;8984;49.268;12.302;2023-10-13T03:56:18;16.70;99.90
17728;DHT22;8984;49.268;12.302;2023-10-13T03:58:52;16.60;99.90
17728;DHT22;8984;49.268;12.302;2023-10-13T04:01:21;16.60;99.90
17728;DHT22;8984;49.268;12.302;2023-10-13T04:03:57;16.60;99.90
17728;DHT22;8984;49.268;12.302;2023-10-13T04:06:29;16.60;99.90
17728;DHT22;8984;49.268;12.302;2023-10-13T04:09:24;16.50;99.90
17728;DHT22;8984;49.268;12.302;2023-10-13T04:12:09;16.50;99.90
17728;DHT22;8984;49.268;12.302;2023-10-13T04:15:07;16.50;99.90
17728;DHT22;8984;49.268;12.302;2023-10-13T04:17:49;16.50;99.90
17728;DHT22;8984;49.268;12.302;2023-10-13T04:20:16;16.50;99.90
17728;DHT22;8984;49.268;12.302;2023-10-13T04:23:03;16.50;99.90
17728;DHT22;8984;49.268;12.302;2023-10-13T04:25:46;16.50;99.90
17728;DHT22;8984;49.268;12.302;2023-10-13T04:28:34;16.50;99.90
17728;DHT22;8984;49.268;12.302;2023-10-13T04:31:03;16.50;99.90
17728;DHT22;8984;49.268;12.302;2023-10-13T04:33:38;16.50;99.90
17728;DHT22;8984;49.268;12.302;2023-10-13T04:36:17;16.50;99.90
17728;DHT22;8984;49.268;12.302;2023-10-13T04:38:48;16.50;99.90
17728;DHT22;8984;49.268;12.302;2023-10-13T04:41:27;16.50;99.90
17728;DHT22;8984;49.268;12.302;2023-10-13T04:43:57;16.50;99.90
17728;DHT22;8984;49.268;12.302;2023-10-13T04:46:31;16.50;99.90
17728;DHT22;8984;49.268;12.302;2023-10-13T04:49:20;16.50;99.90
17728;DHT22;8984;49.268;12.302;2023-10-13T04:51:55;16.50;99.90
17728;DHT22;8984;49.268;12.302;2023-10-13T04:54:39;16.40;99.90
17728;DHT22;8984;49.268;12.302;2023-10-13T04:57:18;16.40;99.90
17728;DHT22;8984;49.268;12.302;2023-10-13T04:59:50;16.40;99.90
17728;DHT22;8984;49.268;12.302;2023-10-13T05:02:44;16.40;99.90
17728;DHT22;8984;49.268;12.302;2023-10-13T05:05:43;16.30;99.90
17728;DHT22;8984;49.268;12.302;2023-10-13T05:08:36;16.30;99.90
17728;DHT22;8984;49.268;12.302;2023-10-13T05:11:20;16.30;99.90
17728;DHT22;8984;49.268;12.302;2023-10-13T05:14:06;16.20;99.90
17728;DHT22;8984;49.268;12.302;2023-10-13T05:16:50;16.30;99.90
17728;DHT22;8984;49.268;12.302;2023-10-13T05:19:31;16.20;99.90
17728;DHT22;8984;49.268;12.302;2023-10-13T05:22:15;16.20;99.90
17728;DHT22;8984;49.268;12.302;2023-10-13T05:24:59;16.20;99.90
17728;DHT22;8984;49.268;12.302;2023-10-13T05:27:44;16.20;99.90
17728;DHT22;8984;49.268;12.302;2023-10-13T05:30:29;16.20;99.90
17728;DHT22;8984;49.268;12.302;2023-10-13T05:33:13;16.20;99.90
17728;DHT22;8984;49.268;12.302;2023-10-13T05:35:58;16.10;99.90
17728;DHT22;8984;49.268;12.302;2023-10-13T05:38:42;16.10;99.90
17728;DHT22;8984;49.268;12.302;2023-10-13T05:41:26;16.10;99.90
17728;DHT22;8984;49.268;12.302;2023-10-13T05:44:11;16.10;99.90
17728;DHT22;8984;49.268;12.302;2023-10-13T05:46:56;16.10;99.90
17728;DHT22;8984;49.268;12.302;2023-10-13T05:49:59;16.10;99.90
17728;DHT22;8984;49.268;12.302;2023-10-13T05:52:31;16.10;99.90
17728;DHT22;8984;49.268;12.302;2023-10-13T05:55:15;16.20;99.90
17728;DHT22;8984;49.268;12.302;2023-10-13T05:58:00;16.20;99.90
17728;DHT22;8984;49.268;12.302;2023-10-13T06:00:44;16.20;99.90
17728;DHT22;8984;49.268;12.302;2023-10-13T06:03:30;16.30;99.90
17728;DHT22;8984;49.268;12.302;2023-10-13T06:06:14;16.40;99.90
17728;DHT22;8984;49.268;12.302;2023-10-13T06:08:59;16.50;99.90
17728;DHT22;8984;49.268;12.302;2023-10-13T06:11:43;16.70;99.90
17728;DHT22;8984;49.268;12.302;2023-10-13T06:14:27;16.80;99.90
17728;DHT22;8984;49.268;12.302;2023-10-13T06:17:12;16.90;99.90
17728;DHT22;8984;49.268;12.302;2023-10-13T06:19:57;16.90;99.90
17728;DHT22;8984;49.268;12.302;2023-10-13T06:22:53;17.00;99.90
17728;DHT22;8984;49.268;12.302;2023-10-13T06:25:38;17.00;99.90
17728;DHT22;8984;49.268;12.302;2023-10-13T06:28:23;17.10;99.90
17728;DHT22;8984;49.268;12.302;2023-10-13T06:31:09;17.20;99.90
17728;DHT22;8984;49.268;12.302;2023-10-13T06:33:39;17.30;99.90
17728;DHT22;8984;49.268;12.302;2023-10-13T06:36:12;17.40;99.90
17728;DHT22;8984;49.268;12.302;2023-10-13T06:38:39;17.50;99.90
17728;DHT22;8984;49.268;12.302;2023-10-13T06:41:07;17.50;99.90
17728;DHT22;8984;49.268;12.302;2023-10-13T06:43:35;17.50;99.90
17728;DHT22;8984;49.268;12.302;2023-10-13T06:46:06;17.50;99.90
17728;DHT22;8984;49.268;12.302;2023-10-13T06:48:33;17.60;99.90
17728;DHT22;8984;49.268;12.302;2023-10-13T06:51:00;17.60;99.90
17728;DHT22;8984;49.268;12.302;2023-10-13T06:53:39;17.70;99.90
17728;DHT22;8984;49.268;12.302;2023-10-13T06:56:11;17.80;99.90
17728;DHT22;8984;49.268;12.302;2023-10-13T06:58:43;17.80;99.90
17728;DHT22;8984;49.268;12.302;2023-10-13T07:01:12;17.90;99.90
17728;DHT22;8984;49.268;12.302;2023-10-13T07:03:42;18.00;99.90
17728;DHT22;8984;49.268;12.302;2023-10-13T07:06:09;18.10;99.90
17728;DHT22;8984;49.268;12.302;2023-10-13T07:08:39;18.20;99.90
17728;DHT22;8984;49.268;12.302;2023-10-13T07:11:05;18.30;99.90
17728;DHT22;8984;49.268;12.302;2023-10-13T07:13:34;18.50;99.90
17728;DHT22;8984;49.268;12.302;2023-10-13T07:16:05;18.50;99.90
17728;DHT22;8984;49.268;12.302;2023-10-13T07:18:34;18.60;99.90
17728;DHT22;8984;49.268;12.302;2023-10-13T07:21:03;18.70;99.90
17728;DHT22;8984;49.268;12.302;2023-10-13T07:23:36;18.70;99.90
17728;DHT22;8984;49.268;12.302;2023-10-13T07:26:05;18.80;99.90
17728;DHT22;8984;49.268;12.302;2023-10-13T07:28:34;18.80;99.90
17728;DHT22;8984;49.268;12.302;2023-10-13T07:31:11;18.90;99.90
17728;DHT22;8984;49.268;12.302;2023-10-13T07:33:41;19.00;99.90
17728;DHT22;8984;49.268;12.302;2023-10-13T07:36:09;19.10;99.90
17728;DHT22;8984;49.268;12.302;2023-10-13T07:38:43;19.20;99.90
17728;DHT22;8984;49.268;12.302;2023-10-13T07:41:15;19.30;99.90
17728;DHT22;8984;49.268;12.302;2023-10-13T07:43:42;19.50;99.90
17728;DHT22;8984;49.268;12.302;2023-10-13T07:46:11;19.50;99.90
17728;DHT22;8984;49.268;12.302;2023-10-13T07:48:38;19.70;99.90
17728;DHT22;8984;49.268;12.302;2023-10-13T07:51:07;19.80;99.90
17728;DHT22;8984;49.268;12.302;2023-10-13T07:53:37;19.90;99.90
17728;DHT22;8984;49.268;12.302;2023-10-13T07:56:06;19.90;99.90
17728;DHT22;8984;49.268;12.302;2023-10-13T07:58:35;20.00;99.90
17728;DHT22;8984;49.268;12.302;2023-10-13T08:01:13;20.20;99.90
17728;DHT22;8984;49.268;12.302;2023-10-13T08:03:44;20.30;99.90
17728;DHT22;8984;49.268;12.302;2023-10-13T08:06:12;20.40;99.90
17728;DHT22;8984;49.268;12.302;2023-10-13T08:08:46;20.50;99.90
17728;DHT22;8984;49.268;12.302;2023-10-13T08:11:17;20.60;99.90
17728;DHT22;8984;49.268;12.302;2023-10-13T08:13:59;20.60;99.90
17728;DHT22;8984;49.268;12.302;2023-10-13T08:16:28;20.70;99.90
17728;DHT22;8984;49.268;12.302;2023-10-13T08:19:11;20.80;99.90
17728;DHT22;8984;49.268;12.302;2023-10-13T08:21:40;21.00;99.90
17728;DHT22;8984;49.268;12.302;2023-10-13T08:24:15;21.20;99.90
17728;DHT22;8984;49.268;12.302;2023-10-13T08:26:42;21.30;99.90
17728;DHT22;8984;49.268;12.302;2023-10-13T08:29:25;21.50;99.90
17728;DHT22;8984;49.268;12.302;2023-10-13T08:32:11;21.60;99.90
17728;DHT22;8984;49.268;12.302;2023-10-13T08:34:49;21.70;99.90
17728;DHT22;8984;49.268;12.302;2023-10-13T08:37:35;21.90;99.90
17728;DHT22;8984;49.268;12.302;2023-10-13T08:40:13;21.90;99.90
17728;DHT22;8984;49.268;12.302;2023-10-13T08:43:10;22.00;99.90
17728;DHT22;8984;49.268;12.302;2023-10-13T08:45:39;22.10;99.90
17728;DHT22;8984;49.268;12.302;2023-10-13T08:48:25;22.30;99.90
17728;DHT22;8984;49.268;12.302;2023-10-13T08:50:58;22.30;99.90
17728;DHT22;8984;49.268;12.302;2023-10-13T08:53:35;22.40;99.90
17728;DHT22;8984;49.268;12.302;2023-10-13T08:56:11;22.50;99.90
17728;DHT22;8984;49.268;12.302;2023-10-13T08:58:45;22.60;99.90
17728;DHT22;8984;49.268;12.302;2023-10-13T09:01:28;22.70;99.90
17728;DHT22;8984;49.268;12.302;2023-10-13T09:04:03;22.80;99.90
17728;DHT22;8984;49.268;12.302;2023-10-13T09:06:48;23.00;99.90
17728;DHT22;8984;49.268;12.302;2023-10-13T09:09:29;23.10;99.90
17728;DHT22;8984;49.268;12.302;2023-10-13T09:12:00;23.10;99.90
17728;DHT22;8984;49.268;12.302;2023-10-13T09:14:36;23.30;99.90
17728;DHT22;8984;49.268;12.302;2023-10-13T09:17:06;23.40;99.90
17728;DHT22;8984;49.268;12.302;2023-10-13T09:19:59;23.40;99.90
17728;DHT22;8984;49.268;12.302;2023-10-13T09:22:46;23.40;99.90
17728;DHT22;8984;49.268;12.302;2023-10-13T09:25:22;23.40;99.90
17728;DHT22;8984;49.268;12.302;2023-10-13T09:27:49;23.50;99.90
17728;DHT22;8984;49.268;12.302;2023-10-13T09:30:19;23.40;99.90
17728;DHT22;8984;49.268;12.302;2023-10-13T09:32:59;23.60;99.90
17728;DHT22;8984;49.268;12.302;2023-10-13T09:35:28;23.60;99.90
17728;DHT22;8984;49.268;12.302;2023-10-13T09:37:53;23.60;99.90
17728;DHT22;8984;49.268;12.302;2023-10-13T09:40:22;23.60;99.90
17728;DHT22;8984;49.268;12.302;2023-10-13T09:42:53;23.80;99.90
17728;DHT22;8984;49.268;12.302;2023-10-13T09:45:27;23.70;99.90
17728;DHT22;8984;49.268;12.302;2023-10-13T09:47:59;23.90;99.90
17728;DHT22;8984;49.268;12.302;2023-10-13T09:50:36;24.10;99.90
17728;DHT22;8984;49.268;12.302;2023-10-13T09:53:04;24.10;99.90
17728;DHT22;8984;49.268;12.302;2023-10-13T09:55:38;24.30;99.90
17728;DHT22;8984;49.268;12.302;2023-10-13T09:58:12;24.40;99.90
17728;DHT22;8984;49.268;12.302;2023-10-13T10:00:43;24.50;99.90
17728;DHT22;8984;49.268;12.302;2023-10-13T10:03:24;24.60;99.90
17728;DHT22;8984;49.268;12.302;2023-10-13T10:06:05;24.70;99.90
17728;DHT22;8984;49.268;12.302;2023-10-13T10:08:39;24.70;99.90
17728;DHT22;8984;49.268;12.302;2023-10-13T10:14:19;25.00;99.90
17728;DHT22;8984;49.268;12.302;2023-10-13T10:17:03;25.10;99.90
17728;DHT22;8984;49.268;12.302;2023-10-13T10:19:48;25.10;99.90
17728;DHT22;8984;49.268;12.302;2023-10-13T10:22:25;25.10;99.90
17728;DHT22;8984;49.268;12.302;2023-10-13T10:24:56;25.10;99.90
17728;DHT22;8984;49.268;12.302;2023-10-13T10:27:29;25.10;99.90
17728;DHT22;8984;49.268;12.302;2023-10-13T10:29:57;25.10;99.90
17728;DHT22;8984;49.268;12.302;2023-10-13T10:32:34;25.00;99.90
17728;DHT22;8984;49.268;12.302;2023-10-13T10:35:09;25.00;99.90
17728;DHT22;8984;49.268;12.302;2023-10-13T10:37:41;24.80;99.90
17728;DHT22;8984;49.268;12.302;2023-10-13T10:40:14;24.60;99.90
17728;DHT22;8984;49.268;12.302;2023-10-13T10:42:58;24.50;99.90
17728;DHT22;8984;49.268;12.302;2023-10-13T10:45:27;24.50;99.90
17728;DHT22;8984;49.268;12.302;2023-10-13T10:47:58;24.80;99.90
17728;DHT22;8984;49.268;12.302;2023-10-13T10:50:27;24.80;99.90
17728;DHT22;8984;49.268;12.302;2023-10-13T10:53:01;25.00;99.90
17728;DHT22;8984;49.268;12.302;2023-10-13T10:55:35;25.10;99.90
17728;DHT22;8984;49.268;12.302;2023-10-13T10:58:02;25.10;99.90
17728;DHT22;8984;49.268;12.302;2023-10-13T11:00:32;25.10;99.90
17728;DHT22;8984;49.268;12.302;2023-10-13T11:03:11;25.20;99.90
17728;DHT22;8984;49.268;12.302;2023-10-13T11:05:47;25.30;99.90
17728;DHT22;8984;49.268;12.302;2023-10-13T11:08:22;25.40;99.90
17728;DHT22;8984;49.268;12.302;2023-10-13T11:10:57;25.40;99.90
17728;DHT22;8984;49.268;12.302;2023-10-13T11:13:25;25.50;99.90
17728;DHT22;8984;49.268;12.302;2023-10-13T11:15:57;25.70;99.90
17728;DHT22;8984;49.268;12.302;2023-10-13T11:18:29;25.60;99.90
17728;DHT22;8984;49.268;12.302;2023-10-13T11:21:00;25.70;99.90
17728;DHT22;8984;49.268;12.302;2023-10-13T11:23:32;25.90;99.90
17728;DHT22;8984;49.268;12.302;2023-10-13T11:26:02;25.80;99.90
17728;DHT22;8984;49.268;12.302;2023-10-13T11:28:29;25.80;99.90
17728;DHT22;8984;49.268;12.302;2023-10-13T11:30:59;25.90;99.90
17728;DHT22;8984;49.268;12.302;2023-10-13T11:33:42;25.80;99.90
17728;DHT22;8984;49.268;12.302;2023-10-13T11:36:13;26.00;99.90
17728;DHT22;8984;49.268;12.302;2023-10-13T11:38:43;26.10;99.90
17728;DHT22;8984;49.268;12.302;2023-10-13T11:41:15;26.20;99.90
17728;DHT22;8984;49.268;12.302;2023-10-13T11:43:45;26.20;99.90
17728;DHT22;8984;49.268;12.302;2023-10-13T11:46:49;26.30;99.90
17728;DHT22;8984;49.268;12.302;2023-10-13T11:49:21;26.30;99.90
17728;DHT22;8984;49.268;12.302;2023-10-13T11:52:01;26.30;99.90
17728;DHT22;8984;49.268;12.302;2023-10-13T11:54:43;26.20;99.90
17728;DHT22;8984;49.268;12.302;2023-10-13T11:57:10;26.10;99.90
17728;DHT22;8984;49.268;12.302;2023-10-13T11:59:36;26.10;99.90
17728;DHT22;8984;49.268;12.302;2023-10-13T12:02:11;26.00;99.90
17728;DHT22;8984;49.268;12.302;2023-10-13T12:04:56;26.10;99.90
17728;DHT22;8984;49.268;12.302;2023-10-13T12:07:26;26.10;99.90
17728;DHT22;8984;49.268;12.302;2023-10-13T12:10:11;26.20;99.90
17728;DHT22;8984;49.268;12.302;2023-10-13T12:12:42;26.20;99.90
17728;DHT22;8984;49.268;12.302;2023-10-13T12:15:11;26.30;99.90
17728;DHT22;8984;49.268;12.302;2023-10-13T12:17:50;26.40;99.90
17728;DHT22;8984;49.268;12.302;2023-10-13T12:20:17;26.30;99.90
17728;DHT22;8984;49.268;12.302;2023-10-13T12:22:59;26.50;99.90
17728;DHT22;8984;49.268;12.302;2023-10-13T12:25:37;26.50;99.90
17728;DHT22;8984;49.268;12.302;2023-10-13T12:28:21;26.50;99.90
17728;DHT22;8984;49.268;12.302;2023-10-13T12:30:53;26.50;99.90
17728;DHT22;8984;49.268;12.302;2023-10-13T12:33:23;26.40;99.90
17728;DHT22;8984;49.268;12.302;2023-10-13T12:35:56;26.30;99.90
17728;DHT22;8984;49.268;12.302;2023-10-13T12:38:54;26.50;99.90
17728;DHT22;8984;49.268;12.302;2023-10-13T12:41:53;26.50;99.90
17728;DHT22;8984;49.268;12.302;2023-10-13T12:44:38;26.30;99.90
17728;DHT22;8984;49.268;12.302;2023-10-13T12:47:22;26.30;99.90
17728;DHT22;8984;49.268;12.302;2023-10-13T12:50:07;26.20;99.90
17728;DHT22;8984;49.268;12.302;2023-10-13T12:52:40;26.00;99.90
17728;DHT22;8984;49.268;12.302;2023-10-13T12:55:12;26.00;99.90
17728;DHT22;8984;49.268;12.302;2023-10-13T12:57:40;26.00;99.90
17728;DHT22;8984;49.268;12.302;2023-10-13T13:00:13;26.00;99.90
17728;DHT22;8984;49.268;12.302;2023-10-13T13:02:47;26.10;99.90
17728;DHT22;8984;49.268;12.302;2023-10-13T13:05:16;26.30;99.90
17728;DHT22;8984;49.268;12.302;2023-10-13T13:07:48;26.50;99.90
17728;DHT22;8984;49.268;12.302;2023-10-13T13:10:19;26.60;99.90
17728;DHT22;8984;49.268;12.302;2023-10-13T13:12:54;26.70;99.90
17728;DHT22;8984;49.268;12.302;2023-10-13T13:15:21;26.70;99.90
17728;DHT22;8984;49.268;12.302;2023-10-13T13:17:49;26.70;99.90
17728;DHT22;8984;49.268;12.302;2023-10-13T13:20:16;26.90;99.90
17728;DHT22;8984;49.268;12.302;2023-10-13T13:22:55;27.00;99.90
17728;DHT22;8984;49.268;12.302;2023-10-13T13:25:29;26.70;99.90
17728;DHT22;8984;49.268;12.302;2023-10-13T13:27:58;26.60;99.90
17728;DHT22;8984;49.268;12.302;2023-10-13T13:30:31;26.60;99.90
17728;DHT22;8984;49.268;12.302;2023-10-13T13:33:00;26.70;99.90
17728;DHT22;8984;49.268;12.302;2023-10-13T13:35:35;26.80;99.90
17728;DHT22;8984;49.268;12.302;2023-10-13T13:38:02;26.80;99.90
17728;DHT22;8984;49.268;12.302;2023-10-13T13:40:38;27.00;99.90
17728;DHT22;8984;49.268;12.302;2023-10-13T13:43:04;27.10;99.90
17728;DHT22;8984;49.268;12.302;2023-10-13T13:45:32;27.10;99.90
17728;DHT22;8984;49.268;12.302;2023-10-13T13:48:00;27.10;99.90
17728;DHT22;8984;49.268;12.302;2023-10-13T13:50:33;27.20;99.90
17728;DHT22;8984;49.268;12.302;2023-10-13T13:53:07;27.30;99.90
17728;DHT22;8984;49.268;12.302;2023-10-13T13:55:35;27.40;99.90
17728;DHT22;8984;49.268;12.302;2023-10-13T13:58:09;27.40;99.90
17728;DHT22;8984;49.268;12.302;2023-10-13T14:00:38;27.40;99.90
17728;DHT22;8984;49.268;12.302;2023-10-13T14:03:14;27.20;99.90
17728;DHT22;8984;49.268;12.302;2023-10-13T14:05:56;27.00;99.90
17728;DHT22;8984;49.268;12.302;2023-10-13T14:08:24;27.10;99.90
17728;DHT22;8984;49.268;12.302;2023-10-13T14:10:51;27.00;99.90
17728;DHT22;8984;49.268;12.302;2023-10-13T14:13:36;27.10;99.90
17728;DHT22;8984;49.268;12.302;2023-10-13T14:16:15;27.10;99.90
17728;DHT22;8984;49.268;12.302;2023-10-13T14:18:42;27.00;99.90
17728;DHT22;8984;49.268;12.302;2023-10-13T14:21:09;27.00;99.90
17728;DHT22;8984;49.268;12.302;2023-10-13T14:23:35;26.90;99.90
17728;DHT22;8984;49.268;12.302;2023-10-13T14:26:04;27.00;99.90
17728;DHT22;8984;49.268;12.302;2023-10-13T14:28:36;26.90;99.90
17728;DHT22;8984;49.268;12.302;2023-10-13T14:31:04;26.80;99.90
17728;DHT22;8984;49.268;12.302;2023-10-13T14:33:35;26.80;99.90
17728;DHT22;8984;49.268;12.302;2023-10-13T14:36:02;26.80;99.90
17728;DHT22;8984;49.268;12.302;2023-10-13T14:38:30;26.70;99.90
17728;DHT22;8984;49.268;12.302;2023-10-13T14:40:57;26.80;99.90
17728;DHT22;8984;49.268;12.302;2023-10-13T14:43:24;26.80;99.90
17728;DHT22;8984;49.268;12.302;2023-10-13T14:45:54;26.80;99.90
17728;DHT22;8984;49.268;12.302;2023-10-13T14:48:21;26.80;99.90
17728;DHT22;8984;49.268;12.302;2023-10-13T14:50:50;26.80;99.90
17728;DHT22;8984;49.268;12.302;2023-10-13T14:53:17;26.80;99.90
17728;DHT22;8984;49.268;12.302;2023-10-13T14:55:47;26.80;99.90
17728;DHT22;8984;49.268;12.302;2023-10-13T14:58:14;26.80;99.90
17728;DHT22;8984;49.268;12.302;2023-10-13T15:00:41;26.80;99.90
17728;DHT22;8984;49.268;12.302;2023-10-13T15:03:12;26.80;99.90
17728;DHT22;8984;49.268;12.302;2023-10-13T15:05:39;26.80;99.90
17728;DHT22;8984;49.268;12.302;2023-10-13T15:08:08;26.80;99.90
17728;DHT22;8984;49.268;12.302;2023-10-13T15:10:35;26.90;99.90
17728;DHT22;8984;49.268;12.302;2023-10-13T15:13:02;26.80;99.90
17728;DHT22;8984;49.268;12.302;2023-10-13T15:15:28;26.80;99.90
17728;DHT22;8984;49.268;12.302;2023-10-13T15:17:57;26.70;99.90
17728;DHT22;8984;49.268;12.302;2023-10-13T15:20:26;26.70;99.90
17728;DHT22;8984;49.268;12.302;2023-10-13T15:22:53;26.70;99.90
17728;DHT22;8984;49.268;12.302;2023-10-13T15:25:25;26.60;99.90
17728;DHT22;8984;49.268;12.302;2023-10-13T15:27:57;26.50;99.90
17728;DHT22;8984;49.268;12.302;2023-10-13T15:30:27;26.50;99.90
17728;DHT22;8984;49.268;12.302;2023-10-13T15:33:08;26.50;99.90
17728;DHT22;8984;49.268;12.302;2023-10-13T15:35:38;26.40;99.90
17728;DHT22;8984;49.268;12.302;2023-10-13T15:38:08;26.40;99.90
17728;DHT22;8984;49.268;12.302;2023-10-13T15:40:40;26.30;99.90
17728;DHT22;8984;49.268;12.302;2023-10-13T15:43:08;26.20;99.90
17728;DHT22;8984;49.268;12.302;2023-10-13T15:45:35;26.20;99.90
17728;DHT22;8984;49.268;12.302;2023-10-13T15:48:06;26.10;99.90
17728;DHT22;8984;49.268;12.302;2023-10-13T15:50:37;26.00;99.90
17728;DHT22;8984;49.268;12.302;2023-10-13T15:53:06;25.90;99.90
17728;DHT22;8984;49.268;12.302;2023-10-13T15:55:35;25.80;99.90
17728;DHT22;8984;49.268;12.302;2023-10-13T15:58:03;25.60;99.90
17728;DHT22;8984;49.268;12.302;2023-10-13T16:00:33;25.50;99.90
17728;DHT22;8984;49.268;12.302;2023-10-13T16:03:01;25.40;99.90
17728;DHT22;8984;49.268;12.302;2023-10-13T16:05:38;25.20;99.90
17728;DHT22;8984;49.268;12.302;2023-10-13T16:08:07;25.10;99.90
17728;DHT22;8984;49.268;12.302;2023-10-13T16:10:37;24.90;99.90
17728;DHT22;8984;49.268;12.302;2023-10-13T16:13:04;24.70;99.90
17728;DHT22;8984;49.268;12.302;2023-10-13T16:15:36;24.50;99.90